CFB6 weather

Edmonton / Josephburg Airport
Edmonton, Alberta, Canada

Public forecast

Using degrees Celsius for public forecast. Weather courtesy of forecast.io.

Closest aviation weather report (METAR) to Edmonton / Josephburg Airport

Closest report is Edmonton (CFB Namao) Heliport, 14.2 nm (26.3 km) WSW. Retrieved 2020/04/02 06:00 UTC (5 minutes ago):

CYED 020600Z AUTO 01003KT 9SM OVC020 OVC041 M18/M20 A3030 RMK SLP322

Closest aviation forecast (TAF) to Edmonton / Josephburg Airport

Forecast is more than 12 hours old.

Closest forecast is Edmonton (CFB Namao) Heliport, 14.2 nm (26.3 km) WSW. Retrieved 2020-03-14 00:33 UTC (19 days ago):

TAF TAF CYED 132330Z 1400/1412 34008KT P6SM SCT070 BKN120 TEMPO 1400/1412 5SM -SN SCT020 BKN070 BECMG 1400/1402 03006KT RMK FCST BASED ON AUTO OBS NXT FCST BY 140600Z